Time;durP1;ratioP1;P1;durP2;ratioP2;P2;SDS_P1;SDS_P2;PMS_P1;PMS_P2;Temp;Humidity;BMP_temperature;BMP_pressure;BME280_temperature;BME280_humidity;BME280_pressure;Samples;Min_cycle;Max_cycle;Signal;HPM_P1;HPM_P2
2021/11/20 00:00:19;;;;;;;14.73;5.80;;;9.70;95.90;;;;;;5033420;28;20032;-48
2021/11/20 00:02:45;;;;;;;20.02;7.22;;;9.70;95.80;;;;;;5032690;28;20331;-48
2021/11/20 00:05:15;;;;;;;17.95;7.38;;;9.70;95.80;;;;;;5018281;28;20449;-48
2021/11/20 00:07:40;;;;;;;14.15;6.93;;;9.70;95.90;;;;;;5013348;28;20057;-48
2021/11/20 00:10:09;;;;;;;16.95;6.93;;;9.70;95.90;;;;;;5012990;28;20060;-48
2021/11/20 00:12:36;;;;;;;20.65;7.82;;;9.70;95.90;;;;;;5013341;28;20392;-48
2021/11/20 00:15:05;;;;;;;18.13;7.13;;;9.70;95.90;;;;;;5012791;28;20107;-48
2021/11/20 00:17:32;;;;;;;22.67;8.52;;;9.70;95.90;;;;;;5013363;28;20034;-48
2021/11/20 00:19:58;;;;;;;21.83;7.93;;;9.70;95.90;;;;;;5022492;28;20508;-48
2021/11/20 00:22:29;;;;;;;23.23;7.88;;;9.70;95.90;;;;;;5032704;28;20256;-48
2021/11/20 00:24:58;;;;;;;15.85;6.38;;;9.70;95.90;;;;;;5032379;28;20464;-48
2021/11/20 00:27:32;;;;;;;16.97;7.50;;;9.70;95.90;;;;;;5032750;28;20043;-48
2021/11/20 00:30:03;;;;;;;16.10;6.30;;;9.70;95.90;;;;;;5032942;28;20105;-48
2021/11/20 00:32:34;;;;;;;19.15;6.68;;;9.70;95.90;;;;;;5032404;28;20024;-48
2021/11/20 00:35:04;;;;;;;19.75;6.18;;;9.70;95.90;;;;;;5021276;28;20045;-48
2021/11/20 00:37:30;;;;;;;22.00;7.68;;;9.70;95.90;;;;;;5012238;28;20061;-48
2021/11/20 00:39:56;;;;;;;17.92;6.97;;;9.70;95.90;;;;;;5012705;28;20084;-48
2021/11/20 00:42:21;;;;;;;16.20;5.47;;;9.70;95.90;;;;;;5011545;28;20038;-48
2021/11/20 00:44:48;;;;;;;22.27;7.22;;;9.70;95.90;;;;;;5012960;28;20493;-48
2021/11/20 00:47:15;;;;;;;14.30;5.88;;;9.70;95.90;;;;;;5024130;28;20021;-48
2021/11/20 00:49:41;;;;;;;16.75;6.35;;;9.70;95.90;;;;;;5031315;28;20030;-47
2021/11/20 00:52:07;;;;;;;17.83;6.22;;;9.70;95.90;;;;;;5031483;28;20026;-48
2021/11/20 00:54:34;;;;;;;20.05;6.60;;;9.70;95.90;;;;;;5031930;28;20021;-48
2021/11/20 00:57:00;;;;;;;20.48;6.90;;;9.70;95.90;;;;;;5031746;28;20119;-48
2021/11/20 00:59:26;;;;;;;15.80;6.30;;;9.70;95.90;;;;;;5032254;28;20468;-48
2021/11/20 01:01:58;;;;;;;18.42;6.53;;;9.70;95.90;;;;;;5032153;28;20017;-48
2021/11/20 01:04:26;;;;;;;12.52;5.72;;;9.70;95.90;;;;;;5028481;28;20049;-47
2021/11/20 01:06:53;;;;;;;12.63;5.90;;;9.70;96.00;;;;;;5011352;28;20029;-48
2021/11/20 01:09:26;;;;;;;17.33;6.93;;;9.70;96.00;;;;;;5012344;28;20029;-48
2021/11/20 01:11:55;;;;;;;13.10;5.65;;;9.70;96.00;;;;;;5011759;28;20490;-48
2021/11/20 01:14:25;;;;;;;15.18;5.90;;;9.70;95.90;;;;;;5012039;28;20405;-48
2021/11/20 01:16:51;;;;;;;13.20;5.82;;;9.70;96.00;;;;;;5011364;28;20037;-47
2021/11/20 01:19:19;;;;;;;18.60;6.03;;;9.70;96.00;;;;;;5011440;28;20018;-48
2021/11/20 01:21:46;;;;;;;14.75;5.85;;;9.70;96.00;;;;;;5012177;28;20537;-48
2021/11/20 01:24:12;;;;;;;15.15;6.32;;;9.70;96.00;;;;;;5011398;28;20038;-48
2021/11/20 01:26:39;;;;;;;13.45;5.45;;;9.70;96.00;;;;;;5011488;28;20025;-48
2021/11/20 01:29:07;;;;;;;11.70;5.28;;;9.80;96.00;;;;;;5011995;28;20112;-48
2021/11/20 01:31:35;;;;;;;15.02;6.25;;;9.70;96.00;;;;;;5011927;28;20434;-48
2021/11/20 01:34:01;;;;;;;18.80;6.63;;;9.70;96.00;;;;;;5011621;28;20083;-48
2021/11/20 01:36:29;;;;;;;16.52;6.65;;;9.70;96.00;;;;;;5027530;28;20030;-48
2021/11/20 01:38:58;;;;;;;17.20;6.57;;;9.70;96.00;;;;;;5031473;28;20036;-48
2021/11/20 01:41:27;;;;;;;15.27;6.10;;;9.80;96.00;;;;;;5031617;28;20052;-48
2021/11/20 01:43:57;;;;;;;17.98;6.45;;;9.70;96.00;;;;;;5031374;28;20348;-48
2021/11/20 01:46:29;;;;;;;14.63;6.22;;;9.70;96.00;;;;;;5030469;28;20033;-48
2021/11/20 01:49:06;;;;;;;13.25;5.72;;;9.70;96.00;;;;;;5031313;28;20029;-48
2021/11/20 01:51:32;;;;;;;11.73;5.15;;;9.70;96.00;;;;;;5030129;28;20022;-48
2021/11/20 01:54:11;;;;;;;12.35;5.30;;;9.80;96.00;;;;;;5028145;28;20033;-48
2021/11/20 01:56:57;;;;;;;11.40;5.07;;;9.80;96.00;;;;;;5011043;28;20084;-48
2021/11/20 01:59:50;;;;;;;18.38;6.63;;;9.70;96.00;;;;;;5010191;28;20038;-48
2021/11/20 02:02:24;;;;;;;17.27;7.15;;;9.70;96.00;;;;;;4997159;28;20500;-48
2021/11/20 02:05:28;;;;;;;11.77;5.60;;;9.80;96.00;;;;;;5011849;28;20026;-48
2021/11/20 02:08:15;;;;;;;19.30;5.88;;;9.70;96.00;;;;;;5011628;28;20033;-48
2021/11/20 02:10:54;;;;;;;14.45;4.85;;;9.70;96.00;;;;;;5011289;28;20034;-48
2021/11/20 02:13:25;;;;;;;13.43;4.97;;;9.80;96.00;;;;;;5010792;28;20029;-48
2021/11/20 02:15:56;;;;;;;12.43;5.13;;;9.70;96.00;;;;;;5010455;28;20065;-48
2021/11/20 02:18:25;;;;;;;19.27;7.10;;;9.80;96.00;;;;;;5011149;28;20032;-48
2021/11/20 02:21:06;;;;;;;14.45;5.78;;;9.70;96.00;;;;;;5019618;28;20033;-48
2021/11/20 02:23:32;;;;;;;13.15;5.80;;;9.70;96.00;;;;;;5029944;28;20045;-48
2021/11/20 02:25:59;;;;;;;17.67;4.47;;;9.70;96.00;;;;;;5029491;28;20025;-48
2021/11/20 02:28:25;;;;;;;10.18;4.78;;;9.80;96.00;;;;;;5030739;28;20676;-48
2021/11/20 02:30:51;;;;;;;13.63;4.93;;;9.70;96.00;;;;;;5013198;28;20167;-48
2021/11/20 02:33:19;;;;;;;13.75;6.72;;;9.70;96.00;;;;;;5030437;28;20480;-48
2021/11/20 02:35:56;;;;;;;12.60;5.35;;;9.80;96.00;;;;;;5021555;28;20511;-48
2021/11/20 02:38:27;;;;;;;15.77;5.50;;;9.70;96.00;;;;;;5010511;28;20445;-48
2021/11/20 02:40:53;;;;;;;;;;;9.80;96.00;;;;;;5011524;28;20034;-48
2021/11/20 02:43:20;;;;;;;14.95;4.82;;;9.70;96.00;;;;;;5010772;28;19917;-47
2021/11/20 02:45:54;;;;;;;13.98;5.45;;;9.80;96.10;;;;;;5010196;28;20353;-48
2021/11/20 02:48:21;;;;;;;16.27;5.43;;;9.80;96.10;;;;;;5030650;28;20030;-48
2021/11/20 02:50:54;;;;;;;12.77;5.20;;;9.80;96.10;;;;;;5028968;28;20032;-48
2021/11/20 02:53:27;;;;;;;17.05;4.97;;;9.70;96.00;;;;;;5030856;28;20026;-47
2021/11/20 02:55:53;;;;;;;13.75;5.03;;;9.80;96.00;;;;;;5029872;28;20431;-48
2021/11/20 02:58:22;;;;;;;14.57;5.18;;;9.70;96.00;;;;;;5030537;28;20435;-48
2021/11/20 03:00:52;;;;;;;13.70;4.85;;;9.80;96.00;;;;;;5030219;28;20072;-48
2021/11/20 03:03:18;;;;;;;12.68;4.28;;;9.80;96.00;;;;;;5029973;28;20021;-48
2021/11/20 03:05:44;;;;;;;16.60;6.35;;;9.80;96.00;;;;;;5028131;28;20120;-48
2021/11/20 03:08:09;;;;;;;19.20;5.70;;;9.80;96.00;;;;;;5030512;28;20037;-48
2021/11/20 03:10:35;;;;;;;13.40;5.28;;;9.80;96.00;;;;;;5029686;28;20326;-48
2021/11/20 03:13:00;;;;;;;12.25;5.22;;;9.80;96.00;;;;;;5030412;28;20037;-48
2021/11/20 03:15:26;;;;;;;15.23;4.93;;;9.80;96.00;;;;;;5029925;28;20036;-48
2021/11/20 03:17:52;;;;;;;14.68;5.28;;;9.70;96.00;;;;;;5030413;28;20091;-48
2021/11/20 03:20:19;;;;;;;13.02;4.85;;;9.70;96.00;;;;;;5029298;28;20103;-48
2021/11/20 03:22:54;;;;;;;23.52;6.75;;;9.80;96.00;;;;;;5012063;28;20026;-48
2021/11/20 03:25:20;;;;;;;12.60;5.22;;;9.70;96.00;;;;;;5029485;28;20091;-48
2021/11/20 03:27:46;;;;;;;16.10;4.95;;;9.80;96.00;;;;;;5030168;28;20103;-48
2021/11/20 03:30:12;;;;;;;12.20;5.18;;;9.80;96.00;;;;;;5028164;28;20452;-48
2021/11/20 03:32:38;;;;;;;11.43;5.30;;;9.70;96.00;;;;;;5010287;28;20049;-48
2021/11/20 03:35:05;;;;;;;16.70;5.90;;;9.80;96.00;;;;;;5010260;28;20410;-48
2021/11/20 03:37:31;;;;;;;14.85;5.40;;;9.80;96.00;;;;;;5030160;28;20440;-48
2021/11/20 03:39:57;;;;;;;15.48;4.65;;;9.80;96.00;;;;;;5033753;28;20055;-48
2021/11/20 03:42:23;;;;;;;15.27;6.30;;;9.80;96.00;;;;;;5025289;28;20464;-48
2021/11/20 03:44:49;;;;;;;15.27;6.05;;;9.80;96.00;;;;;;5033647;28;20037;-48
2021/11/20 03:47:15;;;;;;;10.80;4.75;;;9.80;96.00;;;;;;5032949;28;20340;-48
2021/11/20 03:49:42;;;;;;;13.05;4.65;;;9.80;96.00;;;;;;5033718;28;20030;-48
2021/11/20 03:52:09;;;;;;;13.95;4.82;;;9.70;96.00;;;;;;5032059;28;20030;-48
2021/11/20 03:54:35;;;;;;;14.57;5.40;;;9.80;96.00;;;;;;5033568;28;20049;-48
2021/11/20 03:57:00;;;;;;;9.70;4.75;;;9.80;96.00;;;;;;5032929;28;20445;-48
2021/11/20 03:59:26;;;;;;;11.85;4.25;;;9.80;95.90;;;;;;5033395;28;20159;-48
2021/11/20 04:01:52;;;;;;;12.90;4.82;;;9.80;95.90;;;;;;5033387;28;20025;-47
2021/11/20 04:04:18;;;;;;;11.85;4.28;;;9.80;95.90;;;;;;5033154;28;20334;-48
2021/11/20 04:06:45;;;;;;;10.55;4.63;;;9.80;95.90;;;;;;5031281;28;20025;-48
2021/11/20 04:09:14;;;;;;;15.27;5.13;;;9.80;95.90;;;;;;5032763;28;20033;-48
2021/11/20 04:11:44;;;;;;;14.40;5.28;;;9.80;95.90;;;;;;5032951;28;20026;-48
2021/11/20 04:14:10;;;;;;;10.90;4.68;;;9.80;95.90;;;;;;5033303;28;20025;-49
2021/11/20 04:16:36;;;;;;;13.80;5.25;;;9.70;95.90;;;;;;5028079;28;20026;-48
2021/11/20 04:19:03;;;;;;;12.77;5.07;;;9.70;95.90;;;;;;5033033;28;20032;-48
2021/11/20 04:21:28;;;;;;;12.35;4.72;;;9.70;95.90;;;;;;5031810;28;20034;-48
2021/11/20 04:23:56;;;;;;;13.13;4.57;;;9.80;95.90;;;;;;5032938;28;20030;-48
2021/11/20 04:26:23;;;;;;;16.17;5.78;;;9.80;95.90;;;;;;5031867;28;20035;-48
2021/11/20 04:28:49;;;;;;;9.27;4.15;;;9.80;95.90;;;;;;5032950;28;20110;-48
2021/11/20 04:31:15;;;;;;;14.45;5.28;;;9.80;95.90;;;;;;5032585;28;20045;-48
2021/11/20 04:33:43;;;;;;;11.50;5.20;;;9.80;95.90;;;;;;5033500;28;20056;-48
2021/11/20 04:36:09;;;;;;;14.63;5.38;;;9.80;95.90;;;;;;5029163;28;20031;-48
2021/11/20 04:38:36;;;;;;;11.93;4.35;;;9.80;95.90;;;;;;5013080;28;20022;-48
2021/11/20 04:41:02;;;;;;;9.15;4.15;;;9.70;95.90;;;;;;5012931;28;20022;-48
2021/11/20 04:43:29;;;;;;;14.20;5.93;;;9.80;96.00;;;;;;5012958;28;20057;-48
2021/11/20 04:45:55;;;;;;;16.05;5.82;;;9.70;95.90;;;;;;5013600;28;20032;-48
2021/11/20 04:48:21;;;;;;;14.52;4.60;;;9.70;95.90;;;;;;5031483;28;20515;-48
2021/11/20 04:50:48;;;;;;;17.65;5.43;;;9.80;96.00;;;;;;5032206;28;20091;-48
2021/11/20 04:53:14;;;;;;;13.13;5.13;;;9.70;95.90;;;;;;5031084;28;20029;-48
2021/11/20 04:55:41;;;;;;;10.30;4.75;;;9.80;96.00;;;;;;5031847;28;20025;-48
2021/11/20 04:58:07;;;;;;;12.43;4.82;;;9.80;96.00;;;;;;5032318;28;20037;-48
2021/11/20 05:00:37;;;;;;;9.93;4.60;;;9.80;96.00;;;;;;5032340;28;20483;-48
2021/11/20 05:03:07;;;;;;;14.70;5.85;;;9.80;96.00;;;;;;5031967;28;20033;-48
2021/11/20 05:05:39;;;;;;;13.07;5.05;;;9.80;96.00;;;;;;5031816;28;20056;-48
2021/11/20 05:08:05;;;;;;;13.68;5.53;;;9.70;96.00;;;;;;5027928;28;20029;-48
2021/11/20 05:10:33;;;;;;;13.70;5.13;;;9.70;96.00;;;;;;5012277;28;20672;-48
2021/11/20 05:12:59;;;;;;;11.35;4.78;;;9.70;96.00;;;;;;5011832;28;20028;-48
2021/11/20 05:15:26;;;;;;;10.98;4.68;;;9.70;96.00;;;;;;5011447;28;20026;-48
2021/11/20 05:17:51;;;;;;;15.00;4.65;;;9.80;96.00;;;;;;5011873;28;20116;-48
2021/11/20 05:20:17;;;;;;;19.45;5.90;;;9.70;96.00;;;;;;5012422;28;20093;-48
2021/11/20 05:22:43;;;;;;;16.88;5.45;;;9.70;95.90;;;;;;5022773;28;20112;-48
2021/11/20 05:25:11;;;;;;;13.25;5.30;;;9.70;96.00;;;;;;5030551;28;20433;-48
2021/11/20 05:27:37;;;;;;;12.30;4.82;;;9.80;96.00;;;;;;5031639;28;20360;-48
2021/11/20 05:30:11;;;;;;;13.00;5.35;;;9.80;96.00;;;;;;5031662;28;20483;-48
2021/11/20 05:32:37;;;;;;;14.00;5.03;;;9.70;96.00;;;;;;5031672;28;20034;-48
2021/11/20 05:35:03;;;;;;;10.23;4.78;;;9.70;96.00;;;;;;5031012;28;20021;-48
2021/11/20 05:37:29;;;;;;;11.55;4.72;;;9.80;96.00;;;;;;5022168;28;20353;-48
2021/11/20 05:39:54;;;;;;;11.05;4.15;;;9.70;96.00;;;;;;5012158;28;20088;-48
2021/11/20 05:42:21;;;;;;;18.42;5.05;;;9.70;96.00;;;;;;5011759;28;20491;-48
2021/11/20 05:44:46;;;;;;;11.25;4.57;;;9.70;96.00;;;;;;5015905;28;20040;-48
2021/11/20 05:47:12;;;;;;;12.60;4.55;;;9.70;96.00;;;;;;5030685;28;20025;-48
2021/11/20 05:49:40;;;;;;;15.48;5.30;;;9.70;96.00;;;;;;5031514;28;20045;-48
2021/11/20 05:52:07;;;;;;;7.85;4.10;;;9.70;96.00;;;;;;5030266;28;20032;-48
2021/11/20 05:54:33;;;;;;;14.15;6.80;;;9.70;96.00;;;;;;5030942;28;20099;-48
2021/11/20 05:56:59;;;;;;;14.30;6.15;;;9.70;96.00;;;;;;5030364;28;20484;-48
2021/11/20 05:59:25;;;;;;;11.32;4.55;;;9.70;96.00;;;;;;5028897;28;20037;-48
2021/11/20 06:01:51;;;;;;;14.95;4.55;;;9.70;96.00;;;;;;5031496;28;20029;-48
2021/11/20 06:04:17;;;;;;;12.90;5.28;;;9.80;96.00;;;;;;5031101;28;20376;-48
2021/11/20 06:06:43;;;;;;;12.32;4.63;;;9.70;96.00;;;;;;5029933;28;20456;-48
2021/11/20 06:09:09;;;;;;;11.45;4.85;;;9.80;96.00;;;;;;5011279;28;20123;-48
2021/11/20 06:11:35;;;;;;;12.07;5.03;;;9.80;96.00;;;;;;5011347;28;20433;-48
2021/11/20 06:14:02;;;;;;;17.73;4.57;;;9.70;96.00;;;;;;5025664;28;20079;-47
2021/11/20 06:16:28;;;;;;;12.15;4.90;;;9.70;96.00;;;;;;5024089;28;20034;-48
2021/11/20 06:18:54;;;;;;;10.57;4.40;;;9.70;96.00;;;;;;5031078;28;20028;-48
2021/11/20 06:21:19;;;;;;;11.48;5.05;;;9.70;96.00;;;;;;5030648;28;20388;-48
2021/11/20 06:23:45;;;;;;;10.60;4.30;;;9.80;96.00;;;;;;5029890;28;20033;-48
2021/11/20 06:26:11;;;;;;;16.30;5.80;;;9.70;96.00;;;;;;5030661;28;20356;-48
2021/11/20 06:28:37;;;;;;;12.45;4.57;;;9.70;96.00;;;;;;5030620;28;20337;-48
2021/11/20 06:31:05;;;;;;;13.35;5.00;;;9.70;96.00;;;;;;5031084;28;20028;-48
2021/11/20 06:33:31;;;;;;;12.23;4.57;;;9.70;96.00;;;;;;5030518;28;20022;-48
2021/11/20 06:35:58;;;;;;;11.07;4.60;;;9.80;96.10;;;;;;5029864;28;20029;-48
2021/11/20 06:38:24;;;;;;;12.82;4.70;;;9.70;96.10;;;;;;5018392;28;20032;-48
2021/11/20 06:40:51;;;;;;;13.32;4.55;;;9.80;96.10;;;;;;5010849;28;20057;-48
2021/11/20 06:43:22;;;;;;;11.35;4.43;;;9.70;96.10;;;;;;5009244;28;20121;-48
2021/11/20 06:45:50;;;;;;;13.45;3.95;;;9.80;96.10;;;;;;5022663;28;20021;-48
2021/11/20 06:48:17;;;;;;;8.50;4.28;;;9.80;96.10;;;;;;5030794;28;20116;-48
2021/11/20 06:50:44;;;;;;;9.55;3.47;;;9.70;96.10;;;;;;5030556;28;20317;-47
2021/11/20 06:53:13;;;;;;;8.70;4.05;;;9.70;96.10;;;;;;5029360;28;20091;-48
2021/11/20 06:55:39;;;;;;;9.90;3.92;;;9.70;96.10;;;;;;5029099;28;20036;-48
2021/11/20 07:00:38;;;;;;;11.90;4.15;;;9.80;96.10;;;;;;5030475;28;20330;-48
2021/11/20 07:03:13;;;;;;;11.73;3.80;;;9.70;96.10;;;;;;5030217;28;20357;-48
2021/11/20 07:05:52;;;;;;;8.23;3.55;;;9.80;96.10;;;;;;5030215;28;20029;-48
2021/11/20 07:08:19;;;;;;;12.23;3.72;;;9.70;96.10;;;;;;5028894;28;20136;-48
2021/11/20 07:10:45;;;;;;;10.35;3.97;;;9.80;96.10;;;;;;5032251;28;20521;-48
2021/11/20 07:13:13;;;;;;;14.30;3.88;;;9.80;96.20;;;;;;5025597;28;20025;-48
2021/11/20 07:15:40;;;;;;;9.52;4.53;;;9.70;96.10;;;;;;5027502;28;20030;-48
2021/11/20 07:18:05;;;;;;;12.82;4.78;;;9.80;96.20;;;;;;5034210;28;20045;-48
2021/11/20 07:20:34;;;;;;;9.30;3.75;;;9.70;96.20;;;;;;5032868;28;20052;-48
2021/11/20 07:23:00;;;;;;;11.15;3.55;;;9.70;96.20;;;;;;5032806;28;20441;-48
2021/11/20 07:25:29;;;;;;;12.35;4.70;;;9.80;96.20;;;;;;5033633;28;20038;-48
2021/11/20 07:27:56;;;;;;;7.72;3.08;;;9.70;96.20;;;;;;5033661;28;20403;-48
2021/11/20 07:30:23;;;;;;;11.50;3.53;;;9.80;96.60;;;;;;5033561;28;20030;-48
2021/11/20 07:32:50;;;;;;;11.57;4.20;;;9.80;96.20;;;;;;5033608;28;20033;-48
2021/11/20 07:35:44;;;;;;;10.40;3.83;;;9.80;96.20;;;;;;5031680;28;20259;-48
2021/11/20 07:38:12;;;;;;;10.27;4.72;;;9.80;96.20;;;;;;5027057;28;20423;-48
2021/11/20 07:40:42;;;;;;;9.77;4.50;;;9.80;96.30;;;;;;5033842;28;20436;-48
2021/11/20 07:43:08;;;;;;;12.48;5.15;;;9.80;96.60;;;;;;5033780;28;20026;-48
2021/11/20 07:45:35;;;;;;;10.13;4.80;;;9.80;96.30;;;;;;5032533;28;20116;-48
2021/11/20 07:48:16;;;;;;;12.82;4.85;;;9.80;96.30;;;;;;5033535;28;20025;-48
2021/11/20 07:50:44;;;;;;;14.30;5.75;;;9.80;96.30;;;;;;5033728;28;20033;-48
2021/11/20 07:53:10;;;;;;;18.48;5.88;;;9.80;96.20;;;;;;5032225;28;20033;-47
2021/11/20 07:55:36;;;;;;;14.05;5.38;;;9.80;96.10;;;;;;5033089;28;20021;-48
2021/11/20 07:58:04;;;;;;;14.50;5.28;;;9.80;96.10;;;;;;5032811;28;20041;-48
2021/11/20 08:00:30;;;;;;;12.55;5.72;;;9.80;96.10;;;;;;5032966;28;20032;-48
2021/11/20 08:02:55;;;;;;;11.80;4.47;;;9.80;96.10;;;;;;5033707;28;20040;-47
2021/11/20 08:05:25;;;;;;;15.57;4.75;;;9.80;96.10;;;;;;5032757;28;20048;-47
2021/11/20 08:07:51;;;;;;;14.73;4.43;;;9.80;96.10;;;;;;5032546;28;20108;-48
2021/11/20 08:10:17;;;;;;;14.82;5.47;;;9.80;96.10;;;;;;5013357;28;20165;-47
2021/11/20 08:12:43;;;;;;;12.70;5.97;;;9.80;96.20;;;;;;5013324;28;20365;-48
2021/11/20 08:15:10;;;;;;;8.63;4.13;;;9.80;96.20;;;;;;5012560;28;20054;-48
2021/11/20 08:17:36;;;;;;;10.80;5.20;;;9.80;96.20;;;;;;5013256;28;20124;-48
2021/11/20 08:20:05;;;;;;;10.32;4.43;;;9.80;96.20;;;;;;5013390;28;20141;-48
2021/11/20 08:22:30;;;;;;;10.80;4.20;;;9.80;96.20;;;;;;5012012;28;20065;-47
2021/11/20 08:24:56;;;;;;;14.02;4.90;;;9.80;96.20;;;;;;5028749;28;20401;-47
2021/11/20 08:27:21;;;;;;;9.77;3.97;;;9.80;96.30;;;;;;5028479;28;20025;-48
2021/11/20 08:29:47;;;;;;;8.20;3.85;;;9.80;96.30;;;;;;5013080;28;20053;-48
2021/11/20 08:32:12;;;;;;;8.05;4.05;;;9.80;96.40;;;;;;4995212;28;20025;-47
2021/11/20 08:34:40;;;;;;;12.90;5.07;;;9.80;96.40;;;;;;5013233;28;20025;-48
2021/11/20 08:37:07;;;;;;;7.03;4.03;;;9.80;96.30;;;;;;5012252;28;20053;-48
2021/11/20 08:39:33;;;;;;;10.63;4.38;;;9.80;96.40;;;;;;5024790;28;20025;-48
2021/11/20 08:42:00;;;;;;;13.60;4.50;;;9.80;96.40;;;;;;5032516;28;20029;-47
2021/11/20 08:44:26;;;;;;;9.65;4.43;;;9.80;96.50;;;;;;5032154;28;20033;-48
2021/11/20 08:46:51;;;;;;;10.70;4.10;;;9.80;96.50;;;;;;5032079;28;20022;-48
2021/11/20 08:49:17;;;;;;;12.75;5.18;;;9.80;96.50;;;;;;5032491;28;20026;-47
2021/11/20 08:51:44;;;;;;;10.13;5.10;;;9.80;96.60;;;;;;5032506;28;20500;-48
2021/11/20 08:54:10;;;;;;;10.98;4.50;;;9.80;96.60;;;;;;5031348;28;20176;-48
2021/11/20 08:56:39;;;;;;;11.18;5.03;;;9.80;96.50;;;;;;5031348;28;20531;-48
2021/11/20 08:59:08;;;;;;;13.25;5.50;;;9.80;96.60;;;;;;5032006;28;20047;-48
2021/11/20 09:01:46;;;;;;;14.15;5.68;;;9.80;96.60;;;;;;5032439;28;20033;-48
2021/11/20 09:04:18;;;;;;;10.18;4.45;;;9.90;96.70;;;;;;5031899;28;20364;-48
2021/11/20 09:07:01;;;;;;;7.70;3.47;;;9.80;96.60;;;;;;5031096;28;20022;-48
2021/11/20 09:09:43;;;;;;;13.15;4.47;;;9.90;96.60;;;;;;5030934;28;20044;-48
2021/11/20 09:12:29;;;;;;;8.98;4.00;;;9.90;96.70;;;;;;5032390;28;20102;-48
2021/11/20 09:15:10;;;;;;;12.93;4.47;;;9.90;96.80;;;;;;5031240;28;20448;-47
2021/11/20 09:17:36;;;;;;;9.40;3.97;;;9.80;96.80;;;;;;5032313;28;20017;-48
2021/11/20 09:20:02;;;;;;;9.63;4.20;;;9.90;96.80;;;;;;5031670;28;20033;-48
2021/11/20 09:22:30;;;;;;;7.32;3.60;;;9.90;96.80;;;;;;5031688;28;20027;-48
2021/11/20 09:24:55;;;;;;;9.50;5.03;;;9.80;96.80;;;;;;5018430;28;20038;-48
2021/11/20 09:27:23;;;;;;;7.93;3.15;;;9.90;96.80;;;;;;5011602;28;20022;-48
2021/11/20 09:29:48;;;;;;;11.20;4.30;;;9.90;96.80;;;;;;5011899;28;20068;-48
2021/11/20 09:32:14;;;;;;;10.85;4.30;;;9.90;96.90;;;;;;5012338;28;20122;-47
2021/11/20 09:34:41;;;;;;;10.38;4.50;;;9.90;96.90;;;;;;5011418;28;20495;-48
2021/11/20 09:37:06;;;;;;;7.47;3.83;;;9.90;96.90;;;;;;5011285;28;20026;-48
2021/11/20 09:39:35;;;;;;;6.90;3.15;;;9.90;96.90;;;;;;5018966;28;20097;-48
2021/11/20 09:42:01;;;;;;;8.65;3.78;;;9.90;96.90;;;;;;5031592;28;20061;-48
2021/11/20 09:44:28;;;;;;;4.70;2.42;;;9.90;97.00;;;;;;5031033;28;20437;-48
2021/11/20 09:47:06;;;;;;;9.95;4.55;;;9.90;97.00;;;;;;5030629;28;20041;-48
2021/11/20 09:49:36;;;;;;;11.43;4.72;;;9.90;96.90;;;;;;5031356;28;20083;-48
2021/11/20 09:52:02;;;;;;;15.15;5.10;;;9.90;97.00;;;;;;5031705;28;20025;-48
2021/11/20 09:54:35;;;;;;;8.65;3.60;;;9.90;97.00;;;;;;5029741;28;20088;-48
2021/11/20 09:57:10;;;;;;;9.07;3.83;;;9.90;97.00;;;;;;5030464;28;20372;-48
2021/11/20 09:59:59;;;;;;;7.72;3.42;;;9.90;97.10;;;;;;5030988;28;20098;-48
2021/11/20 10:02:40;;;;;;;11.63;3.35;;;9.90;97.00;;;;;;5031071;28;20334;-48
2021/11/20 10:05:08;;;;;;;10.15;4.75;;;9.90;97.00;;;;;;5013085;28;20049;-47
2021/11/20 10:07:33;;;;;;;10.13;3.75;;;9.90;97.10;;;;;;5011441;28;20384;-48
2021/11/20 10:10:14;;;;;;;8.73;3.80;;;10.00;97.10;;;;;;5019961;28;20049;-47
2021/11/20 10:12:48;;;;;;;9.15;3.90;;;10.00;97.10;;;;;;5030983;28;20029;-48
2021/11/20 10:15:29;;;;;;;5.55;3.08;;;10.00;97.10;;;;;;5029825;28;20026;-47
2021/11/20 10:18:01;;;;;;;6.32;3.80;;;10.00;97.10;;;;;;5017548;28;20026;-48
2021/11/20 10:20:39;;;;;;;7.55;3.17;;;10.00;97.10;;;;;;5022728;28;20029;-48
2021/11/20 10:23:10;;;;;;;9.77;4.43;;;10.00;97.10;;;;;;5015466;28;20029;-48
2021/11/20 10:25:45;;;;;;;9.90;3.80;;;10.00;97.10;;;;;;5021913;28;20305;-48
2021/11/20 10:28:48;;;;;;;7.72;3.38;;;10.00;97.10;;;;;;5010573;28;20457;-48
2021/11/20 10:31:19;;;;;;;5.35;2.38;;;10.00;97.10;;;;;;5010960;28;20026;-48
2021/11/20 10:34:02;;;;;;;5.53;2.95;;;10.00;97.20;;;;;;5011549;28;20072;-48
2021/11/20 10:36:41;;;;;;;5.68;2.90;;;10.00;97.20;;;;;;5009863;28;20041;-48
2021/11/20 10:39:28;;;;;;;4.95;2.33;;;10.00;97.20;;;;;;5010463;28;20407;-47
2021/11/20 10:42:18;;;;;;;1.42;1.10;;;10.00;97.30;;;;;;5030645;28;20422;-48
2021/11/20 10:44:52;;;;;;;5.13;1.63;;;10.00;97.30;;;;;;5029679;28;20055;-48
2021/11/20 10:47:17;;;;;;;3.83;1.77;;;10.00;97.20;;;;;;5034097;28;20100;-47
2021/11/20 10:50:11;;;;;;;5.43;2.15;;;10.00;97.30;;;;;;5034573;28;20471;-47
2021/11/20 10:53:18;;;;;;;3.97;1.60;;;10.10;97.30;;;;;;5033978;28;20069;-48
2021/11/20 10:56:28;;;;;;;3.38;1.45;;;10.10;97.30;;;;;;5032848;28;20040;-47
2021/11/20 10:58:59;;;;;;;4.80;2.10;;;10.00;97.30;;;;;;5034278;28;20029;-48
2021/11/20 11:01:44;;;;;;;3.00;1.67;;;10.10;97.30;;;;;;5034075;28;20298;-48
2021/11/20 11:04:18;;;;;;;4.80;1.85;;;10.10;97.30;;;;;;5025090;28;20030;-48
2021/11/20 11:06:53;;;;;;;5.53;2.55;;;10.00;97.30;;;;;;5013863;28;20033;-48
2021/11/20 11:09:40;;;;;;;7.63;3.28;;;10.10;97.40;;;;;;5014303;28;20033;-48
2021/11/20 11:12:19;;;;;;;4.10;2.10;;;10.10;96.90;;;;;;5014282;28;20029;-49
2021/11/20 11:14:50;;;;;;;4.68;2.05;;;10.00;96.10;;;;;;5014683;28;20110;-49
2021/11/20 11:17:35;;;;;;;5.07;2.17;;;10.00;95.70;;;;;;5013768;28;20026;-49
2021/11/20 11:20:18;;;;;;;8.90;2.83;;;10.00;95.20;;;;;;5014500;28;20097;-49
2021/11/20 11:22:54;;;;;;;4.20;2.35;;;10.00;95.30;;;;;;5014173;28;20437;-49
2021/11/20 11:25:26;;;;;;;4.57;2.38;;;10.00;95.00;;;;;;5019873;28;20064;-49
2021/11/20 11:28:13;;;;;;;4.28;2.53;;;10.00;94.90;;;;;;5033824;28;20432;-49
2021/11/20 11:30:45;;;;;;;6.55;2.90;;;9.90;94.60;;;;;;5033399;28;20112;-49
2021/11/20 11:33:11;;;;;;;6.65;2.80;;;9.90;94.70;;;;;;5033968;28;20036;-49
2021/11/20 11:35:52;;;;;;;4.45;2.55;;;9.90;94.60;;;;;;5033249;28;20033;-49
2021/11/20 11:38:32;;;;;;;8.93;2.63;;;9.90;94.90;;;;;;5034090;28;20021;-49
2021/11/20 11:41:15;;;;;;;10.57;3.25;;;9.90;94.30;;;;;;5022056;28;20034;-49
2021/11/20 11:43:40;;;;;;;14.18;3.83;;;9.90;94.30;;;;;;5013992;28;20592;-49
2021/11/20 11:46:17;;;;;;;13.88;3.75;;;9.80;94.20;;;;;;5015684;28;20029;-49
2021/11/20 11:48:59;;;;;;;6.53;3.38;;;9.80;94.20;;;;;;5033528;28;20033;-49
2021/11/20 11:51:57;;;;;;;11.57;3.80;;;9.80;94.20;;;;;;5033179;28;20461;-49
2021/11/20 11:54:49;;;;;;;6.60;2.95;;;9.80;94.10;;;;;;5033465;28;20021;-49
2021/11/20 11:57:15;;;;;;;8.95;3.83;;;9.80;94.30;;;;;;5012600;28;20393;-49
2021/11/20 12:00:16;;;;;;;8.77;3.92;;;9.80;94.50;;;;;;5022194;28;20076;-49
2021/11/20 12:02:53;;;;;;;8.32;4.13;;;9.80;94.30;;;;;;5001120;28;20372;-49
2021/11/20 12:05:34;;;;;;;8.27;3.90;;;9.80;94.30;;;;;;5032287;28;20045;-49
2021/11/20 12:08:36;;;;;;;7.00;4.03;;;9.80;94.50;;;;;;5032897;28;20436;-49
2021/11/20 12:11:08;;;;;;;6.72;3.53;;;9.80;94.40;;;;;;5031964;28;20491;-49
2021/11/20 12:13:41;;;;;;;9.05;3.55;;;9.80;94.40;;;;;;5033558;28;20352;-49
2021/11/20 12:16:12;;;;;;;4.95;3.35;;;9.80;94.50;;;;;;5032075;28;20029;-49
2021/11/20 12:18:41;;;;;;;8.30;4.28;;;9.80;94.30;;;;;;5032427;28;20030;-50
2021/11/20 12:21:16;;;;;;;6.18;3.17;;;9.80;94.30;;;;;;5033304;28;20044;-49
2021/11/20 12:23:53;;;;;;;7.22;3.67;;;9.70;94.30;;;;;;5032992;28;20067;-48
2021/11/20 12:26:42;;;;;;;7.32;3.60;;;9.80;94.40;;;;;;5021008;28;20049;-50
2021/11/20 12:29:22;;;;;;;9.15;4.53;;;9.80;94.40;;;;;;5012655;28;20442;-49
2021/11/20 12:32:06;;;;;;;;;;;9.70;94.50;;;;;;5013758;28;20018;-50
2021/11/20 12:34:43;;;;;;;5.40;3.08;;;9.70;94.80;;;;;;5012873;28;20380;-49
2021/11/20 12:37:26;;;;;;;6.10;2.92;;;9.70;94.60;;;;;;5011934;28;20034;-48
2021/11/20 12:40:20;;;;;;;8.48;3.80;;;9.80;95.10;;;;;;5013013;28;20017;-48
2021/11/20 12:43:09;;;;;;;9.95;5.00;;;9.80;94.90;;;;;;4970237;28;20339;-48
2021/11/20 12:45:40;;;;;;;7.88;3.92;;;9.80;94.50;;;;;;5010274;28;20465;-48
2021/11/20 12:48:21;;;;;;;8.18;4.65;;;9.80;94.60;;;;;;5032290;28;20021;-47
2021/11/20 12:51:08;;;;;;;8.60;3.33;;;9.80;94.50;;;;;;5032583;28;20526;-48
2021/11/20 12:53:55;;;;;;;11.65;4.18;;;9.80;94.40;;;;;;5032443;28;20124;-47
2021/11/20 12:56:28;;;;;;;8.63;3.75;;;9.80;94.50;;;;;;5030547;28;20091;-48
2021/11/20 12:59:12;;;;;;;10.20;4.80;;;9.80;94.40;;;;;;5029434;28;20038;-47
2021/11/20 13:01:44;;;;;;;12.55;5.57;;;9.70;94.20;;;;;;5012515;28;20109;-48
2021/11/20 13:04:11;;;;;;;12.70;6.88;;;9.80;94.20;;;;;;5012012;28;20121;-47
2021/11/20 13:07:00;;;;;;;9.55;4.70;;;9.70;94.50;;;;;;5011301;28;20444;-48
2021/11/20 13:09:28;;;;;;;8.80;4.75;;;9.70;94.50;;;;;;5011883;28;20046;-48
2021/11/20 13:12:08;;;;;;;8.70;3.80;;;9.70;94.40;;;;;;5024305;28;20061;-47